sensor_id;sensor_type;location;lat;lon;timestamp;pressure;altitude;pressure_sealevel;temperature;humidity
24825;BME280;12910;57.690;11.974;2022-09-09T00:00:37;100695.06;;;12.12;100.00
24825;BME280;12910;57.690;11.974;2022-09-09T00:03:18;100702.00;;;12.17;100.00
24825;BME280;12910;57.690;11.974;2022-09-09T00:09:08;100686.56;;;12.17;100.00
24825;BME280;12910;57.690;11.974;2022-09-09T00:11:43;100679.59;;;12.06;100.00
24825;BME280;12910;57.690;11.974;2022-09-09T00:14:18;100683.03;;;12.08;100.00
24825;BME280;12910;57.690;11.974;2022-09-09T00:16:52;100667.56;;;12.00;100.00
24825;BME280;12910;57.690;11.974;2022-09-09T00:22:28;100670.06;;;11.97;100.00
24825;BME280;12910;57.690;11.974;2022-09-09T00:25:11;100649.44;;;11.91;100.00
24825;BME280;12910;57.690;11.974;2022-09-09T00:27:43;100649.41;;;11.90;100.00
24825;BME280;12910;57.690;11.974;2022-09-09T00:32:41;100660.59;;;11.95;100.00
24825;BME280;12910;57.690;11.974;2022-09-09T00:37:35;100641.59;;;11.80;100.00
24825;BME280;12910;57.690;11.974;2022-09-09T00:40:02;100651.91;;;11.82;100.00
24825;BME280;12910;57.690;11.974;2022-09-09T00:47:55;100645.03;;;11.82;100.00
24825;BME280;12910;57.690;11.974;2022-09-09T00:50:49;100641.63;;;11.83;100.00
24825;BME280;12910;57.690;11.974;2022-09-09T00:58:26;100636.50;;;11.83;100.00
24825;BME280;12910;57.690;11.974;2022-09-09T01:01:00;100625.44;;;11.89;100.00
24825;BME280;12910;57.690;11.974;2022-09-09T01:03:39;100634.91;;;11.95;100.00
24825;BME280;12910;57.690;11.974;2022-09-09T01:11:26;100628.78;;;11.83;100.00
24825;BME280;12910;57.690;11.974;2022-09-09T01:14:16;100626.28;;;11.87;100.00
24825;BME280;12910;57.690;11.974;2022-09-09T01:16:45;100614.13;;;11.73;100.00
24825;BME280;12910;57.690;11.974;2022-09-09T01:19:45;100620.16;;;11.77;100.00
24825;BME280;12910;57.690;11.974;2022-09-09T01:25:12;100614.94;;;11.69;100.00
24825;BME280;12910;57.690;11.974;2022-09-09T01:27:41;100589.91;;;11.51;100.00
24825;BME280;12910;57.690;11.974;2022-09-09T01:30:13;100614.06;;;11.68;100.00
24825;BME280;12910;57.690;11.974;2022-09-09T01:35:11;100596.78;;;11.53;100.00
24825;BME280;12910;57.690;11.974;2022-09-09T01:37:38;100613.06;;;11.56;100.00
24825;BME280;12910;57.690;11.974;2022-09-09T01:40:03;100595.94;;;11.53;100.00
24825;BME280;12910;57.690;11.974;2022-09-09T01:42:29;100595.06;;;11.52;100.00
24825;BME280;12910;57.690;11.974;2022-09-09T01:44:54;100588.09;;;11.42;100.00
24825;BME280;12910;57.690;11.974;2022-09-09T01:47:20;100589.78;;;11.40;100.00
24825;BME280;12910;57.690;11.974;2022-09-09T01:49:45;100591.50;;;11.41;100.00
24825;BME280;12910;57.690;11.974;2022-09-09T01:52:11;100592.38;;;11.43;100.00
24825;BME280;12910;57.690;11.974;2022-09-09T01:54:36;100583.78;;;11.40;100.00
24825;BME280;12910;57.690;11.974;2022-09-09T01:57:23;100576.94;;;11.37;100.00
24825;BME280;12910;57.690;11.974;2022-09-09T02:05:30;100587.22;;;11.40;100.00
24825;BME280;12910;57.690;11.974;2022-09-09T02:08:06;100581.28;;;11.44;100.00
24825;BME280;12910;57.690;11.974;2022-09-09T02:10:42;100582.13;;;11.42;100.00
24825;BME280;12910;57.690;11.974;2022-09-09T02:13:13;100570.06;;;11.37;100.00
24825;BME280;12910;57.690;11.974;2022-09-09T02:18:38;100576.09;;;11.38;100.00
24825;BME280;12910;57.690;11.974;2022-09-09T02:21:06;100557.13;;;11.28;100.00
24825;BME280;12910;57.690;11.974;2022-09-09T02:23:32;100565.72;;;11.32;100.00
24825;BME280;12910;57.690;11.974;2022-09-09T02:25:59;100569.25;;;11.40;100.00
24825;BME280;12910;57.690;11.974;2022-09-09T02:28:27;100558.19;;;11.43;100.00
24825;BME280;12910;57.690;11.974;2022-09-09T02:30:55;100565.94;;;11.47;100.00
24825;BME280;12910;57.690;11.974;2022-09-09T02:33:30;100562.53;;;11.48;100.00
24825;BME280;12910;57.690;11.974;2022-09-09T02:36:00;100557.38;;;11.48;100.00
24825;BME280;12910;57.690;11.974;2022-09-09T02:38:30;100562.53;;;11.48;100.00
24825;BME280;12910;57.690;11.974;2022-09-09T02:40:57;100558.19;;;11.43;100.00
24825;BME280;12910;57.690;11.974;2022-09-09T02:43:23;100537.53;;;11.35;100.00
24825;BME280;12910;57.690;11.974;2022-09-09T02:48:33;100546.19;;;11.42;100.00
24825;BME280;12910;57.690;11.974;2022-09-09T02:51:27;100535.88;;;11.38;100.00
24825;BME280;12910;57.690;11.974;2022-09-09T02:54:14;100534.19;;;11.39;100.00
24825;BME280;12910;57.690;11.974;2022-09-09T02:56:47;100542.78;;;11.44;100.00
24825;BME280;12910;57.690;11.974;2022-09-09T02:59:16;100535.91;;;11.42;100.00
24825;BME280;12910;57.690;11.974;2022-09-09T03:01:41;100542.72;;;11.40;100.00
24825;BME280;12910;57.690;11.974;2022-09-09T03:04:07;100530.78;;;11.42;100.00
24825;BME280;12910;57.690;11.974;2022-09-09T03:06:32;100536.75;;;11.42;100.00
24825;BME280;12910;57.690;11.974;2022-09-09T03:08:58;100536.75;;;11.39;100.00
24825;BME280;12910;57.690;11.974;2022-09-09T03:11:26;100531.56;;;11.34;100.00
24825;BME280;12910;57.690;11.974;2022-09-09T03:13:53;100528.06;;;11.31;100.00
24825;BME280;12910;57.690;11.974;2022-09-09T03:16:18;100534.09;;;11.33;100.00
24825;BME280;12910;57.690;11.974;2022-09-09T03:18:43;100528.06;;;11.31;100.00
24825;BME280;12910;57.690;11.974;2022-09-09T03:21:10;100520.38;;;11.28;100.00
24825;BME280;12910;57.690;11.974;2022-09-09T03:23:36;100529.84;;;11.35;100.00
24825;BME280;12910;57.690;11.974;2022-09-09T03:26:01;100516.97;;;11.32;100.00
24825;BME280;12910;57.690;11.974;2022-09-09T03:28:27;100529.78;;;11.30;100.00
24825;BME280;12910;57.690;11.974;2022-09-09T03:31:05;100521.16;;;11.23;100.00
24825;BME280;12910;57.690;11.974;2022-09-09T03:33:31;100522.00;;;11.22;100.00
24825;BME280;12910;57.690;11.974;2022-09-09T03:35:57;100514.41;;;11.29;100.00
24825;BME280;12910;57.690;11.974;2022-09-09T03:38:26;100516.91;;;11.26;100.00
24825;BME280;12910;57.690;11.974;2022-09-09T03:40:53;100503.19;;;11.20;100.00
24825;BME280;12910;57.690;11.974;2022-09-09T03:43:21;100497.16;;;11.18;100.00
24825;BME280;12910;57.690;11.974;2022-09-09T03:45:47;100499.84;;;11.28;100.00
24825;BME280;12910;57.690;11.974;2022-09-09T03:48:14;100503.25;;;11.28;100.00
24825;BME280;12910;57.690;11.974;2022-09-09T03:50:47;100501.56;;;11.32;100.00
24825;BME280;12910;57.690;11.974;2022-09-09T03:53:14;100489.50;;;11.21;100.00
24825;BME280;12910;57.690;11.974;2022-09-09T03:55:44;100486.97;;;11.23;100.00
24825;BME280;12910;57.690;11.974;2022-09-09T03:58:11;100489.47;;;11.20;100.00
24825;BME280;12910;57.690;11.974;2022-09-09T04:00:36;100479.22;;;11.21;100.00
24825;BME280;12910;57.690;11.974;2022-09-09T04:03:02;100455.13;;;11.05;100.00
24825;BME280;12910;57.690;11.974;2022-09-09T04:05:27;100483.56;;;11.27;100.00
24825;BME280;12910;57.690;11.974;2022-09-09T04:07:52;100485.28;;;11.25;100.00
24825;BME280;12910;57.690;11.974;2022-09-09T04:10:18;100479.28;;;11.25;100.00
24825;BME280;12910;57.690;11.974;2022-09-09T04:12:44;100466.44;;;11.23;100.00
24825;BME280;12910;57.690;11.974;2022-09-09T04:15:09;100475.06;;;11.30;100.00
24825;BME280;12910;57.690;11.974;2022-09-09T04:17:35;100465.59;;;11.27;100.00
24825;BME280;12910;57.690;11.974;2022-09-09T04:20:02;100477.63;;;11.31;100.00
24825;BME280;12910;57.690;11.974;2022-09-09T04:22:27;100470.75;;;11.27;100.00
24825;BME280;12910;57.690;11.974;2022-09-09T04:24:53;100446.75;;;11.20;100.00
24825;BME280;12910;57.690;11.974;2022-09-09T04:27:18;100471.72;;;11.37;100.00
24825;BME280;12910;57.690;11.974;2022-09-09T04:29:44;100466.59;;;11.38;100.00
24825;BME280;12910;57.690;11.974;2022-09-09T04:32:09;100462.34;;;11.42;100.00
24825;BME280;12910;57.690;11.974;2022-09-09T04:34:35;100453.75;;;11.37;100.00
24825;BME280;12910;57.690;11.974;2022-09-09T04:37:00;100458.91;;;11.40;100.00
24825;BME280;12910;57.690;11.974;2022-09-09T04:39:26;100460.56;;;11.35;100.00
24825;BME280;12910;57.690;11.974;2022-09-09T04:41:51;100451.97;;;11.33;100.00
24825;BME280;12910;57.690;11.974;2022-09-09T04:44:17;100444.31;;;11.36;100.00
24825;BME280;12910;57.690;11.974;2022-09-09T04:46:42;100452.91;;;11.41;100.00
24825;BME280;12910;57.690;11.974;2022-09-09T04:49:08;100456.38;;;11.43;100.00
24825;BME280;12910;57.690;11.974;2022-09-09T04:51:33;100441.84;;;11.44;100.00
24825;BME280;12910;57.690;11.974;2022-09-09T04:53:59;100434.94;;;11.41;100.00
24825;BME280;12910;57.690;11.974;2022-09-09T04:56:24;100428.97;;;11.39;100.00
24825;BME280;12910;57.690;11.974;2022-09-09T04:58:52;100449.59;;;11.48;100.00
24825;BME280;12910;57.690;11.974;2022-09-09T05:01:19;100444.50;;;11.53;100.00
24825;BME280;12910;57.690;11.974;2022-09-09T05:03:47;100445.34;;;11.55;100.00
24825;BME280;12910;57.690;11.974;2022-09-09T05:06:18;100435.13;;;11.57;100.00
24825;BME280;12910;57.690;11.974;2022-09-09T05:08:44;100427.41;;;11.60;100.00
24825;BME280;12910;57.690;11.974;2022-09-09T05:11:24;100447.19;;;11.67;100.00
24825;BME280;12910;57.690;11.974;2022-09-09T05:13:50;100448.06;;;11.71;100.00
24825;BME280;12910;57.690;11.974;2022-09-09T05:16:16;100454.09;;;11.74;100.00
24825;BME280;12910;57.690;11.974;2022-09-09T05:18:42;100450.69;;;11.75;100.00
24825;BME280;12910;57.690;11.974;2022-09-09T05:21:08;100445.53;;;11.75;100.00
24825;BME280;12910;57.690;11.974;2022-09-09T05:23:34;100439.56;;;11.76;100.00
24825;BME280;12910;57.690;11.974;2022-09-09T05:26:01;100440.47;;;11.86;100.00
24825;BME280;12910;57.690;11.974;2022-09-09T05:28:27;100441.41;;;11.91;100.00
24825;BME280;12910;57.690;11.974;2022-09-09T05:31:00;100443.13;;;11.94;100.00
24825;BME280;12910;57.690;11.974;2022-09-09T05:33:29;100443.97;;;11.94;100.00
24825;BME280;12910;57.690;11.974;2022-09-09T05:36:05;100440.66;;;12.02;100.00
24825;BME280;12910;57.690;11.974;2022-09-09T05:38:32;100446.59;;;11.99;100.00
24825;BME280;12910;57.690;11.974;2022-09-09T05:41:01;100446.66;;;12.05;100.00
24825;BME280;12910;57.690;11.974;2022-09-09T05:43:27;100446.66;;;12.08;100.00
24825;BME280;12910;57.690;11.974;2022-09-09T05:46:08;100453.56;;;12.14;100.00
24825;BME280;12910;57.690;11.974;2022-09-09T05:48:42;100459.59;;;12.18;100.00
24825;BME280;12910;57.690;11.974;2022-09-09T05:51:10;100457.88;;;12.18;100.00
24825;BME280;12910;57.690;11.974;2022-09-09T05:53:38;100441.59;;;12.18;100.00
24825;BME280;12910;57.690;11.974;2022-09-09T05:56:15;100453.59;;;12.19;100.00
24825;BME280;12910;57.690;11.974;2022-09-09T05:58:41;100461.38;;;12.28;100.00
24825;BME280;12910;57.690;11.974;2022-09-09T06:01:30;100451.09;;;12.26;100.00
24825;BME280;12910;57.690;11.974;2022-09-09T06:03:56;100451.09;;;12.26;100.00
24825;BME280;12910;57.690;11.974;2022-09-09T06:06:26;100452.84;;;12.30;100.00
24825;BME280;12910;57.690;11.974;2022-09-09T06:08:54;100453.72;;;12.37;100.00
24825;BME280;12910;57.690;11.974;2022-09-09T06:11:24;100457.19;;;12.42;100.00
24825;BME280;12910;57.690;11.974;2022-09-09T06:13:51;100458.06;;;12.44;100.00
24825;BME280;12910;57.690;11.974;2022-09-09T06:16:21;100450.31;;;12.41;100.00
24825;BME280;12910;57.690;11.974;2022-09-09T06:18:49;100463.19;;;12.44;100.00
24825;BME280;12910;57.690;11.974;2022-09-09T06:23:42;100448.59;;;12.40;100.00
24825;BME280;12910;57.690;11.974;2022-09-09T06:26:20;100468.38;;;12.52;100.00
24825;BME280;12910;57.690;11.974;2022-09-09T06:28:47;100462.41;;;12.58;100.00
24825;BME280;12910;57.690;11.974;2022-09-09T06:31:15;100449.53;;;12.58;100.00
24825;BME280;12910;57.690;11.974;2022-09-09T06:33:46;100450.44;;;12.63;100.00
24825;BME280;12910;57.690;11.974;2022-09-09T06:36:21;100449.63;;;12.72;100.00
24825;BME280;12910;57.690;11.974;2022-09-09T06:38:47;100450.47;;;12.75;100.00
24825;BME280;12910;57.690;11.974;2022-09-09T06:41:14;100447.91;;;12.75;100.00
24825;BME280;12910;57.690;11.974;2022-09-09T06:43:40;100435.91;;;12.73;100.00
24825;BME280;12910;57.690;11.974;2022-09-09T06:46:09;100424.75;;;12.68;100.00
24825;BME280;12910;57.690;11.974;2022-09-09T06:48:35;100445.38;;;12.78;100.00
24825;BME280;12910;57.690;11.974;2022-09-09T06:51:06;100436.81;;;12.83;100.00
24825;BME280;12910;57.690;11.974;2022-09-09T06:53:33;100442.84;;;12.86;100.00
24825;BME280;12910;57.690;11.974;2022-09-09T06:56:17;100431.69;;;12.83;100.00
24825;BME280;12910;57.690;11.974;2022-09-09T06:58:44;100431.66;;;12.86;100.00
24825;BME280;12910;57.690;11.974;2022-09-09T07:01:11;100447.16;;;12.98;100.00
24825;BME280;12910;57.690;11.974;2022-09-09T07:03:41;100442.00;;;12.98;100.00
24825;BME280;12910;57.690;11.974;2022-09-09T07:06:14;100429.16;;;12.98;100.00
24825;BME280;12910;57.690;11.974;2022-09-09T07:08:40;100437.75;;;13.06;100.00
24825;BME280;12910;57.690;11.974;2022-09-09T07:11:07;100442.91;;;13.09;100.00
24825;BME280;12910;57.690;11.974;2022-09-09T07:13:34;100438.63;;;13.13;100.00
24825;BME280;12910;57.690;11.974;2022-09-09T07:16:11;100442.91;;;13.16;100.00
24825;BME280;12910;57.690;11.974;2022-09-09T07:18:39;100436.91;;;13.17;100.00
24825;BME280;12910;57.690;11.974;2022-09-09T07:21:05;100431.75;;;13.17;100.00
24825;BME280;12910;57.690;11.974;2022-09-09T07:23:32;100433.50;;;13.21;100.00
24825;BME280;12910;57.690;11.974;2022-09-09T07:25:58;100431.78;;;13.24;100.00
24825;BME280;12910;57.690;11.974;2022-09-09T07:28:24;100421.50;;;13.29;100.00
24825;BME280;12910;57.690;11.974;2022-09-09T07:30:58;100440.38;;;13.34;100.00
24825;BME280;12910;57.690;11.974;2022-09-09T07:33:25;100441.25;;;13.35;100.00
24825;BME280;12910;57.690;11.974;2022-09-09T07:35:52;100430.13;;;13.39;100.00
24825;BME280;12910;57.690;11.974;2022-09-09T07:38:19;100440.44;;;13.45;100.00
24825;BME280;12910;57.690;11.974;2022-09-09T07:40:46;100425.84;;;13.46;100.00
24825;BME280;12910;57.690;11.974;2022-09-09T07:43:11;100439.59;;;13.52;100.00
24825;BME280;12910;57.690;11.974;2022-09-09T07:45:37;100438.72;;;13.53;100.00
24825;BME280;12910;57.690;11.974;2022-09-09T07:48:03;100427.56;;;13.53;100.00
24825;BME280;12910;57.690;11.974;2022-09-09T07:50:29;100445.59;;;13.59;100.00
24825;BME280;12910;57.690;11.974;2022-09-09T07:52:54;100421.56;;;13.57;100.00
24825;BME280;12910;57.690;11.974;2022-09-09T07:55:21;100426.72;;;13.60;100.00
24825;BME280;12910;57.690;11.974;2022-09-09T07:57:50;100432.72;;;13.61;100.00
24825;BME280;12910;57.690;11.974;2022-09-09T08:00:15;100414.69;;;13.56;100.00
24825;BME280;12910;57.690;11.974;2022-09-09T08:02:41;100425.88;;;13.67;100.00
24825;BME280;12910;57.690;11.974;2022-09-09T08:05:07;100434.44;;;13.76;100.00
24825;BME280;12910;57.690;11.974;2022-09-09T08:07:32;100433.59;;;13.77;100.00
24825;BME280;12910;57.690;11.974;2022-09-09T08:10:00;100430.16;;;13.87;100.00
24825;BME280;12910;57.690;11.974;2022-09-09T08:12:26;100435.31;;;13.96;100.00
24825;BME280;12910;57.690;11.974;2022-09-09T08:14:53;100428.44;;;13.98;100.00
24825;BME280;12910;57.690;11.974;2022-09-09T08:17:19;100437.00;;;14.13;100.00
24825;BME280;12910;57.690;11.974;2022-09-09T08:19:45;100437.84;;;14.20;100.00
24825;BME280;12910;57.690;11.974;2022-09-09T08:22:10;100424.06;;;14.24;100.00
24825;BME280;12910;57.690;11.974;2022-09-09T08:24:36;100434.38;;;14.31;100.00
24825;BME280;12910;57.690;11.974;2022-09-09T08:27:01;100446.41;;;14.34;100.00
24825;BME280;12910;57.690;11.974;2022-09-09T08:29:27;100402.63;;;14.17;100.00
24825;BME280;12910;57.690;11.974;2022-09-09T08:31:57;100444.66;;;14.45;100.00
24825;BME280;12910;57.690;11.974;2022-09-09T08:34:24;100429.19;;;14.44;100.00
24825;BME280;12910;57.690;11.974;2022-09-09T08:36:52;100433.47;;;14.46;100.00
24825;BME280;12910;57.690;11.974;2022-09-09T08:39:20;100441.22;;;14.45;100.00
24825;BME280;12910;57.690;11.974;2022-09-09T08:47:38;100440.34;;;14.44;100.00
24825;BME280;12910;57.690;11.974;2022-09-09T08:53:17;100440.34;;;14.44;100.00
24825;BME280;12910;57.690;11.974;2022-09-09T09:06:39;100448.94;;;14.48;100.00
24825;BME280;12910;57.690;11.974;2022-09-09T09:11:55;100436.91;;;14.48;100.00
24825;BME280;12910;57.690;11.974;2022-09-09T09:14:30;100446.38;;;14.51;100.00
24825;BME280;12910;57.690;11.974;2022-09-09T09:19:39;100436.91;;;14.53;100.00
24825;BME280;12910;57.690;11.974;2022-09-09T09:29:54;100438.59;;;14.70;100.00
24825;BME280;12910;57.690;11.974;2022-09-09T09:32:22;100434.28;;;14.72;100.00
24825;BME280;12910;57.690;11.974;2022-09-09T09:34:58;100434.25;;;14.78;100.00
24825;BME280;12910;57.690;11.974;2022-09-09T09:37:29;100435.13;;;14.80;100.00
24825;BME280;12910;57.690;11.974;2022-09-09T09:39:55;100428.22;;;14.79;100.00
24825;BME280;12910;57.690;11.974;2022-09-09T09:42:22;100423.91;;;14.86;100.00
24825;BME280;12910;57.690;11.974;2022-09-09T09:44:47;100431.63;;;14.87;100.00
24825;BME280;12910;57.690;11.974;2022-09-09T09:47:14;100434.19;;;14.92;100.00
24825;BME280;12910;57.690;11.974;2022-09-09T09:49:51;100426.47;;;14.93;100.00
24825;BME280;12910;57.690;11.974;2022-09-09T09:52:21;100426.47;;;14.93;100.00
24825;BME280;12910;57.690;11.974;2022-09-09T09:54:47;100423.88;;;14.93;100.00
24825;BME280;12910;57.690;11.974;2022-09-09T09:57:16;100424.75;;;14.92;100.00
24825;BME280;12910;57.690;11.974;2022-09-09T09:59:42;100439.31;;;15.00;100.00
24825;BME280;12910;57.690;11.974;2022-09-09T10:02:24;100436.78;;;14.93;100.00
24825;BME280;12910;57.690;11.974;2022-09-09T10:05:05;100434.19;;;14.93;100.00
24825;BME280;12910;57.690;11.974;2022-09-09T10:07:31;100429.91;;;14.92;100.00
24825;BME280;12910;57.690;11.974;2022-09-09T10:09:58;100441.09;;;14.91;100.00
24825;BME280;12910;57.690;11.974;2022-09-09T10:19:36;100428.19;;;14.88;100.00
24825;BME280;12910;57.690;11.974;2022-09-09T10:22:28;100435.09;;;14.88;100.00
24825;BME280;12910;57.690;11.974;2022-09-09T10:30:24;100438.56;;;14.79;100.00
24825;BME280;12910;57.690;11.974;2022-09-09T10:33:07;100442.88;;;14.71;100.00
24825;BME280;12910;57.690;11.974;2022-09-09T10:35:52;100442.06;;;14.67;100.00
24825;BME280;12910;57.690;11.974;2022-09-09T10:38:58;100441.22;;;14.67;100.00
24825;BME280;12910;57.690;11.974;2022-09-09T10:52:23;100463.59;;;14.46;100.00
24825;BME280;12910;57.690;11.974;2022-09-09T10:54:59;100466.16;;;14.40;100.00
24825;BME280;12910;57.690;11.974;2022-09-09T10:57:33;100474.75;;;14.42;100.00
24825;BME280;12910;57.690;11.974;2022-09-09T11:00:26;100490.22;;;14.39;100.00
24825;BME280;12910;57.690;11.974;2022-09-09T11:03:01;100491.97;;;14.33;100.00
24825;BME280;12910;57.690;11.974;2022-09-09T11:05:42;100493.69;;;14.34;100.00
24825;BME280;12910;57.690;11.974;2022-09-09T11:08:20;100498.84;;;14.34;100.00
24825;BME280;12910;57.690;11.974;2022-09-09T11:11:04;100501.44;;;14.38;100.00
24825;BME280;12910;57.690;11.974;2022-09-09T11:13:49;100501.41;;;14.34;100.00
24825;BME280;12910;57.690;11.974;2022-09-09T11:16:29;100510.88;;;14.29;100.00
24825;BME280;12910;57.690;11.974;2022-09-09T11:19:03;100504.84;;;14.30;100.00
24825;BME280;12910;57.690;11.974;2022-09-09T11:21:37;100507.44;;;14.29;100.00
24825;BME280;12910;57.690;11.974;2022-09-09T11:27:27;100517.75;;;14.26;100.00
24825;BME280;12910;57.690;11.974;2022-09-09T11:32:40;100522.91;;;14.24;100.00
24825;BME280;12910;57.690;11.974;2022-09-09T11:40:26;100528.91;;;14.23;100.00
24825;BME280;12910;57.690;11.974;2022-09-09T11:43:12;100540.94;;;14.26;100.00
24825;BME280;12910;57.690;11.974;2022-09-09T11:45:41;100540.09;;;14.22;100.00
24825;BME280;12910;57.690;11.974;2022-09-09T11:48:35;100539.22;;;14.23;100.00
24825;BME280;12910;57.690;11.974;2022-09-09T11:51:10;100538.38;;;14.16;100.00
24825;BME280;12910;57.690;11.974;2022-09-09T11:53:51;100546.97;;;14.20;100.00
24825;BME280;12910;57.690;11.974;2022-09-09T11:56:42;100537.50;;;14.22;100.00
24825;BME280;12910;57.690;11.974;2022-09-09T11:59:27;100540.97;;;14.23;100.00
24825;BME280;12910;57.690;11.974;2022-09-09T12:01:59;100542.69;;;14.25;100.00
24825;BME280;12910;57.690;11.974;2022-09-09T12:04:27;100545.25;;;14.31;100.00
24825;BME280;12910;57.690;11.974;2022-09-09T12:07:02;100527.19;;;14.28;100.00
24825;BME280;12910;57.690;11.974;2022-09-09T12:09:46;100546.97;;;14.36;100.00
24825;BME280;12910;57.690;11.974;2022-09-09T12:17:22;100534.09;;;14.31;100.00
24825;BME280;12910;57.690;11.974;2022-09-09T12:19:48;100534.91;;;14.28;100.00
24825;BME280;12910;57.690;11.974;2022-09-09T12:22:43;100543.53;;;14.30;100.00
24825;BME280;12910;57.690;11.974;2022-09-09T12:25:23;100540.09;;;14.34;100.00
24825;BME280;12910;57.690;11.974;2022-09-09T12:28:22;100541.81;;;14.28;100.00
24825;BME280;12910;57.690;11.974;2022-09-09T12:31:14;100539.22;;;14.28;100.00
24825;BME280;12910;57.690;11.974;2022-09-09T12:33:44;100546.97;;;14.29;100.00
24825;BME280;12910;57.690;11.974;2022-09-09T12:36:19;100542.66;;;14.28;100.00
24825;BME280;12910;57.690;11.974;2022-09-09T12:38:47;100540.97;;;14.32;100.00
24825;BME280;12910;57.690;11.974;2022-09-09T12:41:23;100520.34;;;14.23;100.00
24825;BME280;12910;57.690;11.974;2022-09-09T12:43:49;100533.22;;;14.27;100.00
24825;BME280;12910;57.690;11.974;2022-09-09T12:46:43;100544.41;;;14.31;100.00
24825;BME280;12910;57.690;11.974;2022-09-09T12:51:53;100533.22;;;14.24;100.00
24825;BME280;12910;57.690;11.974;2022-09-09T12:54:19;100537.50;;;14.24;100.00
24825;BME280;12910;57.690;11.974;2022-09-09T12:56:46;100536.66;;;14.25;100.00
24825;BME280;12910;57.690;11.974;2022-09-09T12:59:24;100531.50;;;14.25;100.00
24825;BME280;12910;57.690;11.974;2022-09-09T13:01:58;100532.34;;;14.28;100.00
24825;BME280;12910;57.690;11.974;2022-09-09T13:04:23;100530.63;;;14.35;100.00
24825;BME280;12910;57.690;11.974;2022-09-09T13:06:49;100526.34;;;14.32;100.00
24825;BME280;12910;57.690;11.974;2022-09-09T13:09:14;100522.91;;;14.30;100.00
24825;BME280;12910;57.690;11.974;2022-09-09T13:11:50;100540.97;;;14.32;100.00
24825;BME280;12910;57.690;11.974;2022-09-09T13:14:23;100540.06;;;14.28;100.00
24825;BME280;12910;57.690;11.974;2022-09-09T13:16:59;100526.34;;;14.23;100.00
24825;BME280;12910;57.690;11.974;2022-09-09T13:19:26;100537.50;;;14.31;100.00
24825;BME280;12910;57.690;11.974;2022-09-09T13:21:54;100540.97;;;14.37;100.00
24825;BME280;12910;57.690;11.974;2022-09-09T13:24:40;100537.50;;;14.28;100.00
24825;BME280;12910;57.690;11.974;2022-09-09T13:27:26;100543.53;;;14.27;100.00
24825;BME280;12910;57.690;11.974;2022-09-09T13:29:54;100540.94;;;14.30;100.00
24825;BME280;12910;57.690;11.974;2022-09-09T13:32:21;100560.72;;;14.34;100.00
24825;BME280;12910;57.690;11.974;2022-09-09T13:34:58;100559.84;;;14.29;100.00
24825;BME280;12910;57.690;11.974;2022-09-09T13:37:37;100563.31;;;14.16;100.00
24825;BME280;12910;57.690;11.974;2022-09-09T13:40:04;100566.72;;;14.16;100.00
24825;BME280;12910;57.690;11.974;2022-09-09T13:42:33;100559.00;;;14.24;100.00
24825;BME280;12910;57.690;11.974;2022-09-09T13:45:03;100565.84;;;14.19;100.00
24825;BME280;12910;57.690;11.974;2022-09-09T13:47:36;100565.00;;;14.15;100.00
24825;BME280;12910;57.690;11.974;2022-09-09T13:50:25;100573.59;;;14.19;100.00
24825;BME280;12910;57.690;11.974;2022-09-09T13:52:53;100572.75;;;14.17;100.00
24825;BME280;12910;57.690;11.974;2022-09-09T13:55:20;100570.16;;;14.18;100.00
24825;BME280;12910;57.690;11.974;2022-09-09T13:58:05;100565.88;;;14.13;100.00
24825;BME280;12910;57.690;11.974;2022-09-09T14:00:33;100571.88;;;14.20;100.00
24825;BME280;12910;57.690;11.974;2022-09-09T14:02:59;100565.88;;;14.16;100.00
24825;BME280;12910;57.690;11.974;2022-09-09T14:05:29;100576.16;;;14.19;100.00
24825;BME280;12910;57.690;11.974;2022-09-09T14:07:57;100568.47;;;14.21;100.00
24825;BME280;12910;57.690;11.974;2022-09-09T14:10:23;100565.88;;;14.13;100.00
24825;BME280;12910;57.690;11.974;2022-09-09T14:12:48;100573.59;;;14.08;100.00
24825;BME280;12910;57.690;11.974;2022-09-09T14:15:13;100576.19;;;14.13;100.00
24825;BME280;12910;57.690;11.974;2022-09-09T14:17:39;100576.19;;;14.13;100.00
24825;BME280;12910;57.690;11.974;2022-09-09T14:20:06;100576.19;;;14.16;100.00
24825;BME280;12910;57.690;11.974;2022-09-09T14:22:32;100579.63;;;14.16;100.00
24825;BME280;12910;57.690;11.974;2022-09-09T14:24:58;100572.75;;;14.18;100.00
24825;BME280;12910;57.690;11.974;2022-09-09T14:27:23;100576.16;;;14.19;100.00
24825;BME280;12910;57.690;11.974;2022-09-09T14:29:51;100570.16;;;14.14;100.00
24825;BME280;12910;57.690;11.974;2022-09-09T14:32:16;100569.31;;;14.15;100.00
24825;BME280;12910;57.690;11.974;2022-09-09T14:34:41;100576.16;;;14.14;100.00
24825;BME280;12910;57.690;11.974;2022-09-09T14:37:07;100561.56;;;14.10;100.00
24825;BME280;12910;57.690;11.974;2022-09-09T14:39:32;100569.31;;;14.13;100.00
24825;BME280;12910;57.690;11.974;2022-09-09T14:41:58;100579.63;;;14.18;100.00
24825;BME280;12910;57.690;11.974;2022-09-09T14:44:23;100566.75;;;14.13;100.00
24825;BME280;12910;57.690;11.974;2022-09-09T14:46:48;100577.03;;;14.21;100.00
24825;BME280;12910;57.690;11.974;2022-09-09T14:49:18;100568.47;;;14.16;100.00